Owasa, Iowa
Current Conditions -  °F | °C
As of 12:35 AM on Thursday 23 Oct 2014 (Local Time) from KIFA Reporting Station
Scattered Clouds Scattered Clouds  
Wind Chill: 53°   Ceiling: Unl
Heat Index: 53°   Visibility: 10mi
Dew Point: 42°   Wind: 7mph
Humidity: 67%   Direction: 170°S
Pressure: 30.12"   Gusts: NA
Location:  42.4829°N, 93.2802°W
Report Text: KIFA 230535Z AUTO 17006KT 10SM SCT039 SCT065 SCT110 12/06 A3012 RMK AO2 T01150056
Loading
Personal Weather Stations






























Interactive Weather Map
Tropical Storm Tracking
New forecast layout! Learn more

10-Day Weather Forecast

Advertisements
Track Severe Weather on mobile